Time;durP1;ratioP1;P1;durP2;ratioP2;P2;SDS_P1;SDS_P2;PMS_P1;PMS_P2;Temp;Humidity;BMP_temperature;BMP_pressure;BME280_temperature;BME280_humidity;BME280_pressure;Samples;Min_cycle;Max_cycle;Signal;HPM_P1;HPM_P2
2023/12/04 00:01:19;;;;;;;10.20;7.43;;;4.70;78.20;;;;;;5024252;28;20505;-76
2023/12/04 00:03:45;;;;;;;10.60;7.38;;;4.70;78.20;;;;;;5032814;28;20112;-74
2023/12/04 00:06:11;;;;;;;11.25;7.45;;;4.70;78.20;;;;;;5024178;28;20030;-75
2023/12/04 00:08:38;;;;;;;10.07;6.38;;;4.70;78.90;;;;;;5024231;28;20026;-75
2023/12/04 00:11:05;;;;;;;10.45;7.03;;;4.70;78.20;;;;;;5016070;28;20100;-74
2023/12/04 00:13:30;;;;;;;11.02;7.00;;;4.70;78.20;;;;;;5042063;28;20172;-75
2023/12/04 00:15:56;;;;;;;11.57;7.32;;;4.70;78.20;;;;;;5032025;28;20128;-75
2023/12/04 00:18:22;;;;;;;10.85;7.32;;;4.70;78.20;;;;;;5039598;28;20030;-75
2023/12/04 00:20:48;;;;;;;10.68;6.90;;;4.70;78.20;;;;;;5029842;28;20140;-75
2023/12/04 00:23:14;;;;;;;9.68;6.80;;;4.70;78.30;;;;;;5024664;28;20029;-75
2023/12/04 00:25:39;;;;;;;10.38;7.53;;;4.70;78.20;;;;;;5032031;28;20037;-75
2023/12/04 00:28:05;;;;;;;10.20;7.22;;;4.70;78.20;;;;;;5029842;28;20383;-75
2023/12/04 00:30:31;;;;;;;8.82;6.40;;;4.70;78.30;;;;;;5031407;28;20394;-75
2023/12/04 00:32:56;;;;;;;10.05;6.55;;;4.70;78.20;;;;;;5028019;28;20029;-75
2023/12/04 00:35:22;;;;;;;10.50;7.47;;;4.70;78.20;;;;;;5022962;28;20049;-75
2023/12/04 00:37:48;;;;;;;11.38;7.68;;;4.70;78.20;;;;;;5039094;28;20025;-75
2023/12/04 00:40:14;;;;;;;10.65;7.38;;;4.70;78.30;;;;;;5022158;28;20416;-75
2023/12/04 00:42:39;;;;;;;11.38;7.53;;;4.70;78.20;;;;;;5030648;28;20152;-74
2023/12/04 00:45:06;;;;;;;10.68;7.40;;;4.70;78.30;;;;;;5030941;28;21985;-75
2023/12/04 00:47:31;;;;;;;11.10;7.57;;;4.70;78.30;;;;;;5029818;28;20363;-74
2023/12/04 00:49:57;;;;;;;11.68;7.85;;;4.60;78.20;;;;;;5024265;28;20172;-74
2023/12/04 00:52:23;;;;;;;11.38;7.65;;;4.60;78.20;;;;;;5024698;28;20470;-75
2023/12/04 00:54:48;;;;;;;10.82;7.82;;;4.70;78.30;;;;;;5012985;28;20426;-75
2023/12/04 00:57:14;;;;;;;10.85;7.47;;;4.70;78.30;;;;;;5025947;28;20034;-75
2023/12/04 00:59:40;;;;;;;10.50;7.25;;;4.60;78.20;;;;;;5028648;28;20112;-75
2023/12/04 01:02:06;;;;;;;10.93;7.25;;;4.70;78.30;;;;;;5028323;28;20112;-74
2023/12/04 01:04:32;;;;;;;10.43;7.53;;;4.60;78.20;;;;;;5020926;28;20033;-74
2023/12/04 01:06:58;;;;;;;10.73;7.15;;;4.60;78.20;;;;;;5023797;28;20037;-75
2023/12/04 01:09:24;;;;;;;10.02;6.95;;;4.60;78.20;;;;;;5023796;28;20103;-75
2023/12/04 01:11:52;;;;;;;11.20;7.82;;;4.60;78.20;;;;;;5029033;28;20544;-74
2023/12/04 01:14:17;;;;;;;11.05;8.20;;;4.60;78.30;;;;;;5025796;28;20039;-75
2023/12/04 01:16:43;;;;;;;12.27;7.70;;;4.60;78.20;;;;;;5016724;28;20037;-75
2023/12/04 01:19:09;;;;;;;9.55;7.20;;;4.60;78.30;;;;;;5048168;28;20364;-76
2023/12/04 01:21:35;;;;;;;10.73;7.78;;;4.60;78.30;;;;;;5024145;28;20088;-75
2023/12/04 01:24:01;;;;;;;11.13;7.38;;;4.60;78.20;;;;;;5044241;28;20038;-75
2023/12/04 01:26:27;;;;;;;9.95;7.07;;;4.60;78.30;;;;;;5026781;28;20425;-75
2023/12/04 01:28:52;;;;;;;10.25;7.25;;;4.60;78.30;;;;;;5023768;28;20021;-75
2023/12/04 01:31:18;;;;;;;10.38;7.28;;;4.60;78.30;;;;;;5017352;28;20045;-75
2023/12/04 01:33:44;;;;;;;10.40;7.05;;;4.60;78.20;;;;;;5024325;28;20408;-75
2023/12/04 01:36:10;;;;;;;10.25;6.80;;;4.60;78.20;;;;;;5031291;28;20048;-75
2023/12/04 01:38:37;;;;;;;11.20;7.50;;;4.60;78.30;;;;;;5026532;28;20030;-75
2023/12/04 01:41:03;;;;;;;9.63;6.78;;;4.60;78.30;;;;;;5029077;28;20053;-74
2023/12/04 01:43:29;;;;;;;11.50;7.43;;;4.60;78.30;;;;;;5012454;28;20118;-75
2023/12/04 01:45:55;;;;;;;11.02;7.10;;;4.60;78.30;;;;;;5028411;28;20108;-74
2023/12/04 01:48:22;;;;;;;10.77;7.07;;;4.60;78.30;;;;;;5009251;28;20493;-75
2023/12/04 01:50:48;;;;;;;9.63;6.75;;;4.60;78.30;;;;;;5031756;28;20056;-74
2023/12/04 01:53:15;;;;;;;10.70;6.97;;;4.60;78.30;;;;;;5024693;28;20367;-75
2023/12/04 01:55:41;;;;;;;10.32;7.13;;;4.60;78.90;;;;;;5038588;28;20076;-75
2023/12/04 01:58:07;;;;;;;11.90;7.78;;;4.60;78.30;;;;;;5027827;28;20026;-75
2023/12/04 02:00:33;;;;;;;9.95;6.63;;;4.60;78.30;;;;;;5031774;28;20497;-75
2023/12/04 02:02:59;;;;;;;10.05;7.10;;;4.60;78.30;;;;;;5026497;28;20025;-75
2023/12/04 02:05:30;;;;;;;11.43;7.60;;;4.60;78.30;;;;;;5054104;28;20026;-76
2023/12/04 02:07:56;;;;;;;10.68;7.03;;;4.60;78.30;;;;;;5027248;28;20030;-75
2023/12/04 02:10:22;;;;;;;10.93;7.35;;;4.60;78.30;;;;;;5023641;28;20424;-75
2023/12/04 02:12:50;;;;;;;10.10;7.05;;;4.60;78.30;;;;;;5020186;28;20032;-75
2023/12/04 02:15:16;;;;;;;11.10;7.55;;;4.60;78.30;;;;;;5034839;28;20053;-75
2023/12/04 02:17:43;;;;;;;9.65;6.95;;;4.60;78.30;;;;;;5028449;28;20123;-75
2023/12/04 02:20:09;;;;;;;10.10;7.13;;;4.60;78.30;;;;;;5022927;28;20057;-75
2023/12/04 02:22:35;;;;;;;10.35;7.65;;;4.60;78.30;;;;;;5029060;28;20055;-75
2023/12/04 02:25:01;;;;;;;11.18;7.30;;;4.60;78.30;;;;;;5023400;28;20041;-75
2023/12/04 02:27:33;;;;;;;9.50;6.57;;;4.60;78.30;;;;;;5024489;28;20021;-75
2023/12/04 02:30:05;;;;;;;10.05;6.88;;;4.60;78.30;;;;;;5020256;28;20038;-75
2023/12/04 02:32:35;;;;;;;10.10;6.35;;;4.60;78.30;;;;;;5023156;28;20466;-75
2023/12/04 02:35:03;;;;;;;10.27;7.07;;;4.60;78.30;;;;;;5024492;28;20026;-75
2023/12/04 02:37:30;;;;;;;11.27;7.93;;;4.60;78.30;;;;;;5019739;28;20471;-75
2023/12/04 02:39:56;;;;;;;9.13;6.30;;;4.60;78.30;;;;;;5021983;28;20040;-75
2023/12/04 02:42:24;;;;;;;11.05;7.35;;;4.60;78.30;;;;;;5027720;28;20034;-75
2023/12/04 02:44:51;;;;;;;9.65;6.40;;;4.60;78.30;;;;;;5013547;28;20375;-74
2023/12/04 02:47:17;;;;;;;10.90;7.18;;;4.60;78.30;;;;;;5024031;28;20117;-75
2023/12/04 02:49:43;;;;;;;9.27;6.95;;;4.60;78.30;;;;;;5024548;28;20034;-75
2023/12/04 02:52:08;;;;;;;10.35;6.95;;;4.60;78.30;;;;;;5012047;28;20036;-74
2023/12/04 02:54:34;;;;;;;8.98;6.55;;;4.60;78.40;;;;;;5029652;28;20050;-75
2023/12/04 02:57:00;;;;;;;9.27;6.85;;;4.50;78.30;;;;;;5025268;28;20047;-75
2023/12/04 02:59:26;;;;;;;9.43;7.18;;;4.50;78.30;;;;;;5022370;28;20037;-75
2023/12/04 03:01:51;;;;;;;9.73;6.88;;;4.60;78.30;;;;;;5032384;28;20033;-75
2023/12/04 03:04:18;;;;;;;10.13;7.05;;;4.50;78.30;;;;;;5028708;28;20387;-74
2023/12/04 03:06:44;;;;;;;9.90;7.00;;;4.50;78.30;;;;;;5019542;28;20068;-75
2023/12/04 03:09:10;;;;;;;7.97;5.88;;;4.50;78.30;;;;;;5027800;28;20072;-75
2023/12/04 03:11:38;;;;;;;9.43;6.95;;;4.50;78.30;;;;;;5025697;28;20029;-75
2023/12/04 03:14:04;;;;;;;10.80;7.28;;;4.50;78.30;;;;;;5026926;28;20083;-75
2023/12/04 03:16:30;;;;;;;10.30;7.03;;;4.50;78.30;;;;;;5018523;28;20080;-74
2023/12/04 03:18:56;;;;;;;9.85;6.60;;;4.60;78.30;;;;;;5025398;28;20025;-75
2023/12/04 03:21:21;;;;;;;9.70;6.70;;;4.50;78.30;;;;;;5050618;28;20040;-74
2023/12/04 03:23:47;;;;;;;10.65;6.95;;;4.50;78.30;;;;;;5002725;28;20034;-75
2023/12/04 03:26:13;;;;;;;9.13;6.80;;;4.50;78.30;;;;;;5025878;28;20609;-76
2023/12/04 03:28:39;;;;;;;8.48;6.10;;;4.50;78.30;;;;;;5011363;28;20033;-75
2023/12/04 03:31:06;;;;;;;9.23;6.35;;;4.50;78.30;;;;;;5025294;28;20036;-75
2023/12/04 03:33:31;;;;;;;9.20;6.13;;;4.50;78.90;;;;;;5026357;28;20040;-75
2023/12/04 03:35:59;;;;;;;9.48;6.90;;;4.50;78.30;;;;;;5006763;28;20045;-75
2023/12/04 03:38:24;;;;;;;8.45;6.60;;;4.50;78.30;;;;;;5003757;28;20087;-75
2023/12/04 03:40:50;;;;;;;8.93;5.85;;;4.50;78.30;;;;;;5022132;28;20037;-75
2023/12/04 03:43:16;;;;;;;8.13;5.50;;;4.50;78.30;;;;;;5029667;28;20035;-75
2023/12/04 03:45:41;;;;;;;8.93;6.00;;;4.50;78.30;;;;;;5028672;28;20033;-74
2023/12/04 03:48:07;;;;;;;8.48;5.72;;;4.50;78.40;;;;;;5029689;28;20112;-74
2023/12/04 03:50:33;;;;;;;8.75;6.55;;;4.50;78.30;;;;;;5019872;28;20040;-75
2023/12/04 03:52:59;;;;;;;8.23;6.10;;;4.50;78.30;;;;;;5028828;28;20044;-75
2023/12/04 03:55:24;;;;;;;7.93;5.57;;;4.50;78.30;;;;;;5017242;28;20383;-75
2023/12/04 03:57:50;;;;;;;9.15;6.45;;;4.50;78.30;;;;;;5020443;28;20033;-75
2023/12/04 04:00:16;;;;;;;9.70;6.60;;;4.50;78.30;;;;;;5001427;28;20034;-75
2023/12/04 04:02:43;;;;;;;8.95;6.32;;;4.50;78.30;;;;;;4995933;28;20029;-75
2023/12/04 04:05:09;;;;;;;9.55;6.45;;;4.50;78.30;;;;;;5049979;28;20033;-75
2023/12/04 04:07:35;;;;;;;9.48;6.07;;;4.50;78.30;;;;;;5016690;28;20053;-74
2023/12/04 04:10:02;;;;;;;9.30;6.28;;;4.50;78.30;;;;;;5028778;28;20037;-75
2023/12/04 04:12:28;;;;;;;8.48;5.55;;;4.50;78.30;;;;;;5010694;28;20503;-74
2023/12/04 04:14:53;;;;;;;8.73;6.13;;;4.50;78.30;;;;;;5019432;28;20034;-75
2023/12/04 04:17:19;;;;;;;8.98;6.55;;;4.50;78.30;;;;;;5036146;28;20042;-75
2023/12/04 04:19:45;;;;;;;9.45;6.20;;;4.50;78.30;;;;;;5022397;28;20116;-75
2023/12/04 04:22:10;;;;;;;9.23;6.05;;;4.50;78.50;;;;;;5019926;28;20429;-75
2023/12/04 04:24:36;;;;;;;8.40;5.95;;;4.50;78.40;;;;;;5056414;28;20025;-75
2023/12/04 04:27:02;;;;;;;8.85;6.28;;;4.50;78.30;;;;;;5028755;28;20038;-75
2023/12/04 04:29:28;;;;;;;7.68;5.63;;;4.50;78.30;;;;;;5008981;28;20033;-75
2023/12/04 04:31:53;;;;;;;8.25;5.80;;;4.50;78.30;;;;;;5014095;28;20120;-75
2023/12/04 04:34:21;;;;;;;8.50;5.90;;;4.50;78.30;;;;;;5032443;28;20029;-74
2023/12/04 04:36:47;;;;;;;7.97;6.05;;;4.50;78.30;;;;;;5013826;28;20052;-74
2023/12/04 04:39:13;;;;;;;7.95;5.47;;;4.50;78.30;;;;;;5031354;28;20037;-75
2023/12/04 04:41:40;;;;;;;8.60;6.15;;;4.50;78.30;;;;;;5026932;28;20060;-75
2023/12/04 04:44:06;;;;;;;8.20;5.70;;;4.40;78.30;;;;;;5027503;28;20022;-75
2023/12/04 04:46:31;;;;;;;8.45;5.88;;;4.50;78.30;;;;;;5027433;28;20053;-74
2023/12/04 04:48:57;;;;;;;8.25;6.15;;;4.50;78.40;;;;;;5012706;28;20025;-74
2023/12/04 04:51:23;;;;;;;7.38;5.75;;;4.40;78.30;;;;;;5023955;28;20060;-75
2023/12/04 04:53:49;;;;;;;8.23;6.07;;;4.50;78.40;;;;;;5024463;28;20033;-75
2023/12/04 04:56:15;;;;;;;8.40;5.80;;;4.40;78.30;;;;;;5029404;28;20064;-75
2023/12/04 04:58:41;;;;;;;7.80;5.70;;;4.40;78.20;;;;;;5028318;28;20117;-75
2023/12/04 05:01:08;;;;;;;7.75;5.10;;;4.50;78.40;;;;;;5012341;28;20108;-75
2023/12/04 05:03:34;;;;;;;7.80;5.47;;;4.50;78.40;;;;;;5029933;28;20056;-74
2023/12/04 05:06:00;;;;;;;7.30;5.57;;;4.40;78.30;;;;;;5019874;28;20030;-75
2023/12/04 05:08:26;;;;;;;8.60;6.00;;;4.40;78.30;;;;;;5028715;28;20026;-74
2023/12/04 05:10:51;;;;;;;8.70;6.10;;;4.50;78.30;;;;;;5026467;28;20033;-75
2023/12/04 05:13:17;;;;;;;7.35;5.63;;;4.40;78.30;;;;;;5026844;28;20029;-75
2023/12/04 05:15:43;;;;;;;7.60;5.82;;;4.50;78.30;;;;;;5025548;28;20035;-75
2023/12/04 05:18:09;;;;;;;8.63;5.88;;;4.40;78.20;;;;;;5027071;28;20148;-75
2023/12/04 05:20:35;;;;;;;8.30;6.25;;;4.50;78.30;;;;;;5027657;28;20029;-75
2023/12/04 05:23:00;;;;;;;7.63;5.90;;;4.40;78.30;;;;;;5025469;28;20040;-75
2023/12/04 05:25:26;;;;;;;7.97;5.72;;;4.40;78.20;;;;;;5022395;28;20109;-75
2023/12/04 05:27:52;;;;;;;9.13;6.15;;;4.40;78.30;;;;;;5023579;28;20095;-75
2023/12/04 05:30:18;;;;;;;7.80;5.63;;;4.40;78.30;;;;;;5039517;28;20076;-74
2023/12/04 05:32:43;;;;;;;8.57;5.93;;;4.40;78.20;;;;;;5027566;28;20117;-74
2023/12/04 05:35:09;;;;;;;7.38;5.55;;;4.40;78.30;;;;;;5010392;28;20030;-75
2023/12/04 05:37:35;;;;;;;8.05;5.50;;;4.40;78.30;;;;;;5018717;28;20125;-74
2023/12/04 05:40:01;;;;;;;8.48;5.70;;;4.40;78.30;;;;;;5023906;28;20117;-75
2023/12/04 05:42:26;;;;;;;7.80;5.32;;;4.40;78.30;;;;;;5041223;28;20497;-75
2023/12/04 05:44:55;;;;;;;6.93;5.07;;;4.40;78.30;;;;;;5020854;28;20424;-75
2023/12/04 05:47:21;;;;;;;7.90;5.20;;;4.40;78.30;;;;;;5018590;28;20064;-75
2023/12/04 05:49:47;;;;;;;7.82;5.40;;;4.40;78.30;;;;;;5020038;28;20034;-75
2023/12/04 05:52:13;;;;;;;8.07;5.90;;;4.40;78.30;;;;;;5030574;28;20018;-75
2023/12/04 05:54:38;;;;;;;7.60;5.57;;;4.40;78.30;;;;;;5022731;28;20185;-74
2023/12/04 05:57:04;;;;;;;8.10;5.47;;;4.40;78.20;;;;;;5026584;28;20045;-74
2023/12/04 05:59:30;;;;;;;8.73;5.70;;;4.40;78.20;;;;;;5018461;28;20037;-74
2023/12/04 06:01:56;;;;;;;7.63;5.35;;;4.40;78.30;;;;;;5047165;28;20060;-75
2023/12/04 06:04:22;;;;;;;6.88;5.55;;;4.40;78.30;;;;;;5020931;28;20045;-75
2023/12/04 06:06:47;;;;;;;7.53;5.60;;;4.40;78.30;;;;;;5025671;28;20037;-75
2023/12/04 06:09:16;;;;;;;7.80;5.82;;;4.40;78.30;;;;;;5028519;28;20473;-75
2023/12/04 06:11:41;;;;;;;7.57;5.32;;;4.40;78.30;;;;;;5028155;28;20036;-74
2023/12/04 06:14:07;;;;;;;8.05;5.75;;;4.40;78.30;;;;;;5027514;28;21402;-74
2023/12/04 06:16:33;;;;;;;8.35;5.45;;;4.40;78.30;;;;;;5021334;28;20041;-74
2023/12/04 06:18:58;;;;;;;7.72;5.40;;;4.40;78.30;;;;;;5019661;28;20064;-75
2023/12/04 06:21:24;;;;;;;7.43;5.68;;;4.40;78.30;;;;;;5028802;28;20034;-75
2023/12/04 06:23:50;;;;;;;7.82;5.40;;;4.40;78.30;;;;;;4984376;28;20475;-74
2023/12/04 06:26:17;;;;;;;7.30;5.35;;;4.40;78.30;;;;;;5028328;28;20084;-75
2023/12/04 06:28:44;;;;;;;6.95;4.90;;;4.40;78.30;;;;;;5030781;28;20087;-74
2023/12/04 06:31:10;;;;;;;7.93;5.80;;;4.40;78.30;;;;;;5028289;28;20418;-75
2023/12/04 06:33:36;;;;;;;7.13;5.53;;;4.40;78.30;;;;;;5025589;28;20408;-75
2023/12/04 06:36:03;;;;;;;8.15;6.07;;;4.40;78.30;;;;;;5029646;28;20037;-74
2023/12/04 06:38:33;;;;;;;6.88;4.70;;;4.40;78.30;;;;;;5030830;28;20030;-74
2023/12/04 06:40:59;;;;;;;6.88;5.20;;;4.30;78.20;;;;;;5018014;28;20478;-74
2023/12/04 06:43:25;;;;;;;6.68;4.88;;;4.40;78.30;;;;;;5027806;28;20053;-74
2023/12/04 06:45:51;;;;;;;7.40;4.88;;;4.40;78.20;;;;;;5021848;28;20057;-75
2023/12/04 06:48:17;;;;;;;6.80;5.15;;;4.30;78.20;;;;;;5029451;28;20036;-74
2023/12/04 06:50:43;;;;;;;7.18;4.95;;;4.40;78.20;;;;;;5024189;28;20025;-74
2023/12/04 06:53:09;;;;;;;6.88;5.13;;;4.40;78.20;;;;;;5005552;28;20078;-74
2023/12/04 06:55:34;;;;;;;6.57;4.88;;;4.40;78.20;;;;;;5028465;28;20509;-75
2023/12/04 06:58:00;;;;;;;6.60;4.63;;;4.40;78.20;;;;;;5011636;28;20044;-75
2023/12/04 07:00:26;;;;;;;6.93;5.13;;;4.40;78.20;;;;;;5027424;28;20045;-74
2023/12/04 07:02:52;;;;;;;7.00;5.07;;;4.40;78.20;;;;;;5025559;28;20056;-75
2023/12/04 07:05:19;;;;;;;6.70;4.95;;;4.30;78.20;;;;;;5028593;28;20048;-74
2023/12/04 07:07:45;;;;;;;6.97;4.53;;;4.40;78.30;;;;;;5025144;28;20033;-75
2023/12/04 07:10:14;;;;;;;6.78;4.82;;;4.40;78.30;;;;;;5030103;28;20033;-74
2023/12/04 07:12:41;;;;;;;6.32;4.38;;;4.40;78.20;;;;;;5024634;28;20029;-74
2023/12/04 07:15:08;;;;;;;7.25;4.90;;;4.30;78.20;;;;;;5037403;28;20124;-74
2023/12/04 07:17:36;;;;;;;7.40;5.13;;;4.40;78.20;;;;;;5011413;28;20092;-74
2023/12/04 07:20:02;;;;;;;6.38;4.90;;;4.30;78.20;;;;;;5031539;28;20096;-75
2023/12/04 07:22:27;;;;;;;6.78;4.93;;;4.40;78.20;;;;;;5025578;28;20029;-74
2023/12/04 07:24:53;;;;;;;6.50;4.60;;;4.40;78.20;;;;;;5022851;28;20025;-75
2023/12/04 07:27:19;;;;;;;7.32;5.13;;;4.30;78.20;;;;;;5025750;28;20449;-75
2023/12/04 07:29:45;;;;;;;7.53;5.10;;;4.40;78.20;;;;;;5028094;28;20047;-74
2023/12/04 07:32:11;;;;;;;6.70;4.78;;;4.30;78.20;;;;;;5013270;28;20034;-75
2023/12/04 07:34:36;;;;;;;6.35;4.40;;;4.40;78.20;;;;;;4997297;28;20038;-75
2023/12/04 07:37:02;;;;;;;7.47;5.03;;;4.40;78.20;;;;;;5029351;28;20485;-75
2023/12/04 07:39:29;;;;;;;6.18;4.35;;;4.30;78.20;;;;;;5021114;28;20038;-74
2023/12/04 07:41:54;;;;;;;7.47;5.07;;;4.30;78.20;;;;;;5027937;28;20025;-75
2023/12/04 07:44:20;;;;;;;5.75;4.50;;;4.30;78.20;;;;;;5022634;28;20467;-74
2023/12/04 07:46:46;;;;;;;7.32;4.90;;;4.30;78.10;;;;;;4999375;28;20041;-74
2023/12/04 07:49:12;;;;;;;6.40;4.75;;;4.30;78.10;;;;;;4992259;28;20087;-74
2023/12/04 07:51:38;;;;;;;7.10;5.05;;;4.30;78.10;;;;;;5029938;28;20037;-75
2023/12/04 07:54:04;;;;;;;6.13;4.35;;;4.30;78.10;;;;;;5027454;28;20057;-74
2023/12/04 07:56:30;;;;;;;6.47;4.43;;;4.30;78.10;;;;;;5022825;28;20053;-74
2023/12/04 07:58:56;;;;;;;7.15;4.60;;;4.40;78.20;;;;;;5051927;28;20029;-75
2023/12/04 08:01:24;;;;;;;6.47;4.55;;;4.30;78.10;;;;;;5022976;28;20030;-74
2023/12/04 08:03:49;;;;;;;6.30;4.63;;;4.30;78.10;;;;;;5027248;28;20083;-74
2023/12/04 08:06:18;;;;;;;6.47;4.53;;;4.40;78.10;;;;;;5031698;28;20481;-74
2023/12/04 08:08:43;;;;;;;6.72;4.75;;;4.30;78.10;;;;;;5030703;28;20030;-74
2023/12/04 08:11:13;;;;;;;6.38;4.60;;;4.40;78.20;;;;;;5036922;28;20041;-74
2023/12/04 08:13:39;;;;;;;7.07;4.90;;;4.40;78.20;;;;;;5028632;28;20116;-74
2023/12/04 08:16:05;;;;;;;7.05;4.85;;;4.30;78.10;;;;;;5029398;28;20128;-74
2023/12/04 08:18:31;;;;;;;7.35;4.97;;;4.30;78.10;;;;;;5012434;28;20363;-74
2023/12/04 08:21:00;;;;;;;6.00;4.85;;;4.40;78.80;;;;;;5028523;28;20148;-75
2023/12/04 08:23:25;;;;;;;6.50;4.60;;;4.40;78.10;;;;;;5027996;28;20033;-74
2023/12/04 08:25:51;;;;;;;6.60;4.57;;;4.40;78.10;;;;;;5025345;28;20034;-74
2023/12/04 08:28:17;;;;;;;6.38;4.50;;;4.30;78.10;;;;;;5031922;28;20453;-74
2023/12/04 08:30:42;;;;;;;6.10;4.53;;;4.40;78.20;;;;;;5031054;28;20029;-74
2023/12/04 08:33:08;;;;;;;6.15;4.60;;;4.30;78.10;;;;;;5022642;28;20076;-78
2023/12/04 08:35:34;;;;;;;7.05;5.10;;;4.40;78.10;;;;;;5058253;28;20021;-74
2023/12/04 08:38:00;;;;;;;7.28;4.97;;;4.40;78.10;;;;;;5033144;28;20033;-76
2023/12/04 08:40:26;;;;;;;4.88;3.67;;;4.40;78.10;;;;;;5031824;28;20026;-74
2023/12/04 08:42:51;;;;;;;6.30;4.35;;;4.40;78.10;;;;;;5031842;28;20478;-76
2023/12/04 08:45:17;;;;;;;6.35;4.80;;;4.30;78.10;;;;;;5028041;28;20390;-76
2023/12/04 08:47:44;;;;;;;6.30;4.22;;;4.40;78.10;;;;;;5032894;28;20540;-76
2023/12/04 08:50:10;;;;;;;6.38;4.57;;;4.40;78.20;;;;;;5009084;28;20017;-76
2023/12/04 08:52:35;;;;;;;6.20;4.88;;;4.40;78.10;;;;;;5032156;28;20037;-76
2023/12/04 08:55:01;;;;;;;5.82;4.30;;;4.40;78.10;;;;;;5037631;28;20147;-76
2023/12/04 08:57:27;;;;;;;6.18;4.38;;;4.40;78.10;;;;;;5024242;28;20516;-76
2023/12/04 08:59:53;;;;;;;6.30;4.32;;;4.40;78.10;;;;;;5033401;28;20034;-76
2023/12/04 09:02:19;;;;;;;5.53;4.32;;;4.40;78.10;;;;;;5030777;28;20479;-75
2023/12/04 09:04:44;;;;;;;6.10;3.95;;;4.40;78.10;;;;;;5020371;28;20166;-76
2023/12/04 09:07:10;;;;;;;6.38;4.40;;;4.40;78.10;;;;;;5024690;28;20045;-76
2023/12/04 09:09:36;;;;;;;6.38;4.65;;;4.40;78.10;;;;;;5031889;28;20018;-77
2023/12/04 09:12:01;;;;;;;6.63;4.88;;;4.40;78.10;;;;;;5030038;28;20037;-75
2023/12/04 09:14:27;;;;;;;6.30;4.50;;;4.40;78.10;;;;;;5033000;28;20540;-75
2023/12/04 09:16:53;;;;;;;6.63;4.63;;;4.40;78.10;;;;;;5021707;28;20144;-75
2023/12/04 09:19:19;;;;;;;6.50;4.45;;;4.40;78.10;;;;;;5026329;28;20137;-75
2023/12/04 09:21:45;;;;;;;6.95;4.93;;;4.40;78.10;;;;;;5022245;28;20083;-74
2023/12/04 09:24:10;;;;;;;6.75;5.00;;;4.40;78.10;;;;;;5031662;28;20375;-78
2023/12/04 09:26:36;;;;;;;6.07;4.45;;;4.40;78.10;;;;;;5024863;28;20073;-75
2023/12/04 09:29:02;;;;;;;6.47;3.88;;;4.40;78.10;;;;;;5021842;28;20400;-76
2023/12/04 09:31:28;;;;;;;7.80;4.82;;;4.40;78.10;;;;;;5021602;28;20454;-75
2023/12/04 09:33:53;;;;;;;6.38;4.53;;;4.40;78.10;;;;;;5022829;28;20402;-75
2023/12/04 09:36:19;;;;;;;6.20;4.32;;;4.40;78.10;;;;;;5031709;28;20393;-75
2023/12/04 09:38:45;;;;;;;6.05;4.35;;;4.40;78.10;;;;;;5023128;28;20061;-76
2023/12/04 09:41:12;;;;;;;7.30;4.35;;;4.40;78.10;;;;;;5012754;28;20425;-77
2023/12/04 09:43:38;;;;;;;6.38;4.10;;;4.40;78.10;;;;;;5054274;28;20375;-79
2023/12/04 09:46:04;;;;;;;5.97;4.50;;;4.40;78.10;;;;;;5030101;28;20068;-75
2023/12/04 09:48:31;;;;;;;6.65;4.85;;;4.40;78.10;;;;;;5031711;28;20068;-76
2023/12/04 09:50:58;;;;;;;6.95;5.00;;;4.50;78.10;;;;;;5015185;28;20073;-76
2023/12/04 09:53:26;;;;;;;6.75;4.75;;;4.50;78.10;;;;;;5023860;28;20068;-76
2023/12/04 09:55:53;;;;;;;6.07;4.53;;;4.50;78.10;;;;;;5026912;28;20168;-77
2023/12/04 09:58:26;;;;;;;5.57;4.13;;;4.50;78.10;;;;;;5030198;28;20045;-76
2023/12/04 10:00:54;;;;;;;5.80;4.18;;;4.50;78.10;;;;;;5022367;28;20416;-76
2023/12/04 10:03:20;;;;;;;6.43;4.60;;;4.50;78.10;;;;;;5019832;28;20026;-75
2023/12/04 10:05:47;;;;;;;5.68;4.15;;;4.50;78.10;;;;;;5023177;28;20497;-75
2023/12/04 10:08:12;;;;;;;6.35;4.38;;;4.50;78.10;;;;;;5014885;28;20029;-75
2023/12/04 10:10:39;;;;;;;5.82;4.18;;;4.50;78.10;;;;;;5017788;28;20156;-75
2023/12/04 10:13:05;;;;;;;6.68;4.43;;;4.50;78.10;;;;;;5028095;28;20086;-74
2023/12/04 10:15:30;;;;;;;6.35;4.50;;;4.50;78.10;;;;;;5028983;28;20032;-75
2023/12/04 10:17:56;;;;;;;6.07;4.43;;;4.50;78.10;;;;;;5028481;28;20341;-75
2023/12/04 10:20:23;;;;;;;6.57;4.63;;;4.50;78.10;;;;;;5004525;28;20017;-75
2023/12/04 10:22:58;;;;;;;6.15;4.75;;;4.60;78.10;;;;;;5026895;28;20029;-79
2023/12/04 10:25:26;;;;;;;6.00;4.53;;;4.50;78.00;;;;;;5012785;28;20029;-73
2023/12/04 10:27:53;;;;;;;6.70;4.47;;;4.60;78.10;;;;;;4996961;28;20542;-74
2023/12/04 10:30:27;;;;;;;6.18;4.53;;;4.50;78.00;;;;;;5022211;28;20097;-74
2023/12/04 10:33:00;;;;;;;6.68;4.82;;;4.60;78.10;;;;;;5023083;28;20029;-74
2023/12/04 10:35:30;;;;;;;6.57;4.50;;;4.60;78.10;;;;;;5027727;28;20111;-74
2023/12/04 10:37:57;;;;;;;6.30;4.65;;;4.60;78.10;;;;;;5025286;28;20033;-74
2023/12/04 10:40:31;;;;;;;6.00;4.47;;;4.60;78.10;;;;;;5043223;28;20030;-74
2023/12/04 10:43:09;;;;;;;6.10;4.30;;;4.60;78.10;;;;;;5025838;28;20107;-74
2023/12/04 10:45:39;;;;;;;6.18;4.38;;;4.60;78.10;;;;;;5050343;28;20111;-73
2023/12/04 10:48:06;;;;;;;6.13;4.30;;;4.60;78.10;;;;;;5032165;28;20030;-73
2023/12/04 10:50:37;;;;;;;6.32;4.65;;;4.60;78.00;;;;;;5031342;28;20104;-74
2023/12/04 10:53:04;;;;;;;6.22;4.72;;;4.60;78.00;;;;;;5028282;28;20164;-76
2023/12/04 10:55:34;;;;;;;6.47;4.38;;;4.60;78.00;;;;;;5018624;28;20110;-75
2023/12/04 10:58:05;;;;;;;7.07;4.50;;;4.60;78.00;;;;;;5027320;28;20044;-75
2023/12/04 11:00:45;;;;;;;6.65;4.95;;;4.70;78.70;;;;;;5025163;28;20088;-75
2023/12/04 11:03:18;;;;;;;6.53;4.43;;;4.70;78.10;;;;;;5025384;28;20399;-77
2023/12/04 11:05:45;;;;;;;6.28;4.53;;;4.70;78.00;;;;;;5016590;28;20162;-76
2023/12/04 11:08:15;;;;;;;6.35;5.05;;;4.70;78.00;;;;;;5029119;28;20069;-76
2023/12/04 11:11:07;;;;;;;5.82;4.28;;;4.70;78.00;;;;;;5027622;28;20033;-76
2023/12/04 11:13:37;;;;;;;5.75;4.10;;;4.70;78.10;;;;;;5026475;28;20050;-75
2023/12/04 11:16:27;;;;;;;6.05;4.70;;;4.70;78.00;;;;;;5028781;28;20040;-76
2023/12/04 11:19:31;;;;;;;6.28;4.45;;;4.70;78.00;;;;;;5047991;28;20041;-75
2023/12/04 11:21:59;;;;;;;6.00;4.68;;;4.70;78.00;;;;;;5023754;28;20188;-75
2023/12/04 11:24:25;;;;;;;6.05;4.47;;;4.70;77.90;;;;;;5021892;28;20030;-75
2023/12/04 11:26:52;;;;;;;6.70;5.05;;;4.70;77.90;;;;;;5010872;28;20041;-75
2023/12/04 11:29:19;;;;;;;6.50;4.32;;;4.70;77.90;;;;;;5030013;28;20040;-76
2023/12/04 11:31:46;;;;;;;6.18;4.70;;;4.70;77.90;;;;;;5029811;28;20037;-76
2023/12/04 11:34:12;;;;;;;7.35;5.57;;;4.80;78.00;;;;;;5020611;28;20378;-76
2023/12/04 11:36:38;;;;;;;5.70;4.47;;;4.80;77.90;;;;;;5051365;28;20029;-76
2023/12/04 11:39:09;;;;;;;6.38;4.53;;;4.80;78.00;;;;;;5022062;28;20540;-75
2023/12/04 11:41:35;;;;;;;7.60;5.32;;;4.80;77.90;;;;;;5028535;28;20037;-76
2023/12/04 11:44:01;;;;;;;6.28;4.32;;;4.80;77.90;;;;;;5032845;28;20030;-75
2023/12/04 11:46:28;;;;;;;6.22;4.70;;;4.80;77.90;;;;;;5022105;28;20041;-75
2023/12/04 11:48:56;;;;;;;6.75;4.80;;;4.80;77.90;;;;;;5034084;28;20052;-75
2023/12/04 11:51:42;;;;;;;6.95;4.82;;;4.90;77.90;;;;;;5027018;28;20430;-75
2023/12/04 11:54:09;;;;;;;6.50;4.75;;;4.90;77.90;;;;;;5033811;28;20025;-75
2023/12/04 11:56:35;;;;;;;6.97;4.80;;;4.90;77.90;;;;;;5026860;28;20525;-75
2023/12/04 11:59:04;;;;;;;7.45;5.18;;;4.90;77.90;;;;;;5027503;28;20112;-75
2023/12/04 12:01:36;;;;;;;7.30;5.22;;;4.90;77.90;;;;;;5003054;28;20044;-75
2023/12/04 12:04:09;;;;;;;6.78;4.75;;;4.90;77.90;;;;;;5029574;28;20036;-75
2023/12/04 12:06:35;;;;;;;7.18;4.50;;;4.90;77.90;;;;;;5028119;28;20033;-75
2023/12/04 12:09:01;;;;;;;5.85;4.35;;;4.90;77.90;;;;;;5028571;28;20088;-75
2023/12/04 12:11:27;;;;;;;6.68;4.85;;;4.90;77.90;;;;;;5027414;28;20035;-75
2023/12/04 12:13:54;;;;;;;6.55;4.90;;;4.90;77.90;;;;;;5026251;28;20112;-75
2023/12/04 12:16:19;;;;;;;6.72;4.80;;;4.90;77.90;;;;;;5057065;28;20045;-75
2023/12/04 12:18:46;;;;;;;6.00;4.53;;;4.90;78.50;;;;;;5024784;28;20033;-75
2023/12/04 12:21:12;;;;;;;6.13;4.72;;;4.90;77.80;;;;;;5033846;28;20128;-75
2023/12/04 12:23:38;;;;;;;5.75;4.40;;;5.00;77.90;;;;;;5028756;28;20026;-75
2023/12/04 12:26:04;;;;;;;7.13;5.18;;;4.90;77.80;;;;;;5029304;28;20087;-75
2023/12/04 12:28:30;;;;;;;6.43;4.88;;;5.00;77.90;;;;;;5031967;28;20038;-75
2023/12/04 12:30:56;;;;;;;6.15;4.57;;;5.00;77.80;;;;;;5026382;28;20040;-75
2023/12/04 12:33:23;;;;;;;6.43;4.78;;;5.00;77.80;;;;;;5025152;28;20159;-75
2023/12/04 12:35:49;;;;;;;7.03;4.75;;;5.00;77.80;;;;;;5029562;28;20034;-75
2023/12/04 12:38:15;;;;;;;6.47;4.72;;;5.00;77.80;;;;;;5031151;28;20055;-75
2023/12/04 12:40:41;;;;;;;7.03;5.22;;;5.00;77.80;;;;;;5030247;28;20450;-74
2023/12/04 12:43:08;;;;;;;7.90;5.35;;;5.00;77.80;;;;;;5033028;28;20042;-75
2023/12/04 12:45:47;;;;;;;6.68;4.60;;;5.00;77.80;;;;;;5024873;28;20033;-75
2023/12/04 12:48:14;;;;;;;6.05;4.63;;;5.10;77.90;;;;;;5027862;28;20026;-75
2023/12/04 12:50:43;;;;;;;6.75;4.63;;;5.10;77.80;;;;;;5044783;28;20496;-74
2023/12/04 12:53:11;;;;;;;6.00;4.40;;;5.10;77.80;;;;;;5027957;28;20037;-74